sensor_id;sensor_type;location;lat;lon;timestamp;temperature;humidity
68128;SHT30;54931;52.098;21.006;2023-09-07T00:00:18;13.81;82.71
68128;SHT30;54931;52.098;21.006;2023-09-07T00:03:07;13.77;82.71
68128;SHT30;54931;52.098;21.006;2023-09-07T00:05:34;13.72;82.69
68128;SHT30;54931;52.098;21.006;2023-09-07T00:08:03;13.69;82.83
68128;SHT30;54931;52.098;21.006;2023-09-07T00:10:32;13.69;83.03
68128;SHT30;54931;52.098;21.006;2023-09-07T00:13:03;13.68;83.07
68128;SHT30;54931;52.098;21.006;2023-09-07T00:15:35;13.68;83.11
68128;SHT30;54931;52.098;21.006;2023-09-07T00:18:05;13.66;83.09
68128;SHT30;54931;52.098;21.006;2023-09-07T00:20:33;13.65;83.12
68128;SHT30;54931;52.098;21.006;2023-09-07T00:23:01;13.64;83.21
68128;SHT30;54931;52.098;21.006;2023-09-07T00:25:28;13.63;83.20
68128;SHT30;54931;52.098;21.006;2023-09-07T00:27:56;13.63;83.29
68128;SHT30;54931;52.098;21.006;2023-09-07T00:30:23;13.61;83.27
68128;SHT30;54931;52.098;21.006;2023-09-07T00:32:52;13.60;83.30
68128;SHT30;54931;52.098;21.006;2023-09-07T00:35:20;13.57;83.37
68128;SHT30;54931;52.098;21.006;2023-09-07T00:37:48;13.57;83.37
68128;SHT30;54931;52.098;21.006;2023-09-07T00:40:15;13.55;83.36
68128;SHT30;54931;52.098;21.006;2023-09-07T00:42:43;13.55;83.48
68128;SHT30;54931;52.098;21.006;2023-09-07T00:45:10;13.54;83.50
68128;SHT30;54931;52.098;21.006;2023-09-07T00:47:38;13.53;83.54
68128;SHT30;54931;52.098;21.006;2023-09-07T00:50:07;13.53;83.57
68128;SHT30;54931;52.098;21.006;2023-09-07T00:52:35;13.51;83.57
68128;SHT30;54931;52.098;21.006;2023-09-07T00:55:07;13.50;83.59
68128;SHT30;54931;52.098;21.006;2023-09-07T00:57:36;13.48;83.50
68128;SHT30;54931;52.098;21.006;2023-09-07T01:00:06;13.45;83.47
68128;SHT30;54931;52.098;21.006;2023-09-07T01:02:36;13.44;83.52
68128;SHT30;54931;52.098;21.006;2023-09-07T01:05:04;13.42;83.57
68128;SHT30;54931;52.098;21.006;2023-09-07T01:07:38;13.41;83.60
68128;SHT30;54931;52.098;21.006;2023-09-07T01:10:14;13.40;83.60
68128;SHT30;54931;52.098;21.006;2023-09-07T01:12:42;13.38;83.60
68128;SHT30;54931;52.098;21.006;2023-09-07T01:15:10;13.37;83.62
68128;SHT30;54931;52.098;21.006;2023-09-07T01:17:37;13.36;83.70
68128;SHT30;54931;52.098;21.006;2023-09-07T01:20:07;13.35;83.72
68128;SHT30;54931;52.098;21.006;2023-09-07T01:22:37;13.35;83.75
68128;SHT30;54931;52.098;21.006;2023-09-07T01:25:05;13.34;83.83
68128;SHT30;54931;52.098;21.006;2023-09-07T01:27:35;13.34;83.80
68128;SHT30;54931;52.098;21.006;2023-09-07T01:30:03;13.33;83.72
68128;SHT30;54931;52.098;21.006;2023-09-07T01:32:33;13.30;83.71
68128;SHT30;54931;52.098;21.006;2023-09-07T01:35:00;13.29;83.70
68128;SHT30;54931;52.098;21.006;2023-09-07T01:37:31;13.27;83.73
68128;SHT30;54931;52.098;21.006;2023-09-07T01:40:00;13.26;83.80
68128;SHT30;54931;52.098;21.006;2023-09-07T01:42:28;13.25;83.79
68128;SHT30;54931;52.098;21.006;2023-09-07T01:44:55;13.23;83.74
68128;SHT30;54931;52.098;21.006;2023-09-07T01:47:23;13.21;83.77
68128;SHT30;54931;52.098;21.006;2023-09-07T01:49:51;13.20;83.91
68128;SHT30;54931;52.098;21.006;2023-09-07T01:52:18;13.20;83.98
68128;SHT30;54931;52.098;21.006;2023-09-07T01:54:46;13.18;83.91
68128;SHT30;54931;52.098;21.006;2023-09-07T01:57:13;13.15;83.86
68128;SHT30;54931;52.098;21.006;2023-09-07T01:59:41;13.12;83.94
68128;SHT30;54931;52.098;21.006;2023-09-07T02:02:08;13.11;84.01
68128;SHT30;54931;52.098;21.006;2023-09-07T02:04:36;13.09;84.10
68128;SHT30;54931;52.098;21.006;2023-09-07T02:07:03;13.07;84.10
68128;SHT30;54931;52.098;21.006;2023-09-07T02:09:31;13.06;84.10
68128;SHT30;54931;52.098;21.006;2023-09-07T02:11:59;13.02;84.08
68128;SHT30;54931;52.098;21.006;2023-09-07T02:14:27;13.00;84.10
68128;SHT30;54931;52.098;21.006;2023-09-07T02:16:54;12.97;84.00
68128;SHT30;54931;52.098;21.006;2023-09-07T02:19:22;12.95;84.03
68128;SHT30;54931;52.098;21.006;2023-09-07T02:21:50;12.90;84.22
68128;SHT30;54931;52.098;21.006;2023-09-07T02:24:19;12.91;84.30
68128;SHT30;54931;52.098;21.006;2023-09-07T02:26:47;12.88;84.25
68128;SHT30;54931;52.098;21.006;2023-09-07T02:29:14;12.86;84.35
68128;SHT30;54931;52.098;21.006;2023-09-07T02:31:42;12.85;84.33
68128;SHT30;54931;52.098;21.006;2023-09-07T02:34:10;12.80;84.38
68128;SHT30;54931;52.098;21.006;2023-09-07T02:36:37;12.79;84.48
68128;SHT30;54931;52.098;21.006;2023-09-07T02:39:04;12.77;84.48
68128;SHT30;54931;52.098;21.006;2023-09-07T02:41:33;12.77;84.55
68128;SHT30;54931;52.098;21.006;2023-09-07T02:44:01;12.75;84.55
68128;SHT30;54931;52.098;21.006;2023-09-07T02:46:28;12.74;84.53
68128;SHT30;54931;52.098;21.006;2023-09-07T02:48:57;12.70;84.60
68128;SHT30;54931;52.098;21.006;2023-09-07T02:51:25;12.68;84.58
68128;SHT30;54931;52.098;21.006;2023-09-07T02:53:53;12.66;84.67
68128;SHT30;54931;52.098;21.006;2023-09-07T02:56:23;12.66;84.79
68128;SHT30;54931;52.098;21.006;2023-09-07T02:58:52;12.65;84.87
68128;SHT30;54931;52.098;21.006;2023-09-07T03:01:19;12.64;84.90
68128;SHT30;54931;52.098;21.006;2023-09-07T03:03:48;12.64;84.90
68128;SHT30;54931;52.098;21.006;2023-09-07T03:06:16;12.61;84.96
68128;SHT30;54931;52.098;21.006;2023-09-07T03:08:44;12.62;85.01
68128;SHT30;54931;52.098;21.006;2023-09-07T03:11:12;12.60;85.02
68128;SHT30;54931;52.098;21.006;2023-09-07T03:13:39;12.59;85.06
68128;SHT30;54931;52.098;21.006;2023-09-07T03:16:06;12.59;85.18
68128;SHT30;54931;52.098;21.006;2023-09-07T03:18:34;12.60;85.19
68128;SHT30;54931;52.098;21.006;2023-09-07T03:21:02;12.59;85.13
68128;SHT30;54931;52.098;21.006;2023-09-07T03:23:31;12.58;85.16
68128;SHT30;54931;52.098;21.006;2023-09-07T03:26:00;12.58;85.20
68128;SHT30;54931;52.098;21.006;2023-09-07T03:28:27;12.58;85.20
68128;SHT30;54931;52.098;21.006;2023-09-07T03:30:55;12.58;85.20
68128;SHT30;54931;52.098;21.006;2023-09-07T03:33:23;12.56;85.19
68128;SHT30;54931;52.098;21.006;2023-09-07T03:35:50;12.56;85.20
68128;SHT30;54931;52.098;21.006;2023-09-07T03:38:19;12.55;85.20
68128;SHT30;54931;52.098;21.006;2023-09-07T03:40:47;12.54;85.18
68128;SHT30;54931;52.098;21.006;2023-09-07T03:43:15;12.53;85.11
68128;SHT30;54931;52.098;21.006;2023-09-07T03:45:43;12.50;85.10
68128;SHT30;54931;52.098;21.006;2023-09-07T03:48:10;12.49;85.09
68128;SHT30;54931;52.098;21.006;2023-09-07T03:50:38;12.48;85.17
68128;SHT30;54931;52.098;21.006;2023-09-07T03:53:06;12.47;85.14
68128;SHT30;54931;52.098;21.006;2023-09-07T03:55:43;12.46;85.18
68128;SHT30;54931;52.098;21.006;2023-09-07T03:58:12;12.46;85.20
68128;SHT30;54931;52.098;21.006;2023-09-07T04:00:40;12.46;85.25
68128;SHT30;54931;52.098;21.006;2023-09-07T04:03:09;12.45;85.29
68128;SHT30;54931;52.098;21.006;2023-09-07T04:05:37;12.46;85.33
68128;SHT30;54931;52.098;21.006;2023-09-07T04:08:06;12.47;85.36
68128;SHT30;54931;52.098;21.006;2023-09-07T04:10:36;12.47;85.32
68128;SHT30;54931;52.098;21.006;2023-09-07T04:13:06;12.49;85.35
68128;SHT30;54931;52.098;21.006;2023-09-07T04:15:39;12.51;85.31
68128;SHT30;54931;52.098;21.006;2023-09-07T04:18:13;12.52;85.31
68128;SHT30;54931;52.098;21.006;2023-09-07T04:20:44;12.53;85.30
68128;SHT30;54931;52.098;21.006;2023-09-07T04:23:11;12.56;85.36
68128;SHT30;54931;52.098;21.006;2023-09-07T04:25:39;12.59;85.37
68128;SHT30;54931;52.098;21.006;2023-09-07T04:28:07;12.64;85.30
68128;SHT30;54931;52.098;21.006;2023-09-07T04:30:39;12.67;85.28
68128;SHT30;54931;52.098;21.006;2023-09-07T04:33:08;12.71;85.25
68128;SHT30;54931;52.098;21.006;2023-09-07T04:35:36;12.78;85.38
68128;SHT30;54931;52.098;21.006;2023-09-07T04:38:04;12.84;85.36
68128;SHT30;54931;52.098;21.006;2023-09-07T04:40:31;12.89;85.36
68128;SHT30;54931;52.098;21.006;2023-09-07T04:42:59;12.96;85.37
68128;SHT30;54931;52.098;21.006;2023-09-07T04:45:27;13.03;85.32
68128;SHT30;54931;52.098;21.006;2023-09-07T04:47:55;13.10;85.27
68128;SHT30;54931;52.098;21.006;2023-09-07T04:50:23;13.17;85.21
68128;SHT30;54931;52.098;21.006;2023-09-07T04:52:52;13.26;85.19
68128;SHT30;54931;52.098;21.006;2023-09-07T04:55:21;13.43;85.29
68128;SHT30;54931;52.098;21.006;2023-09-07T04:57:49;13.84;85.41
68128;SHT30;54931;52.098;21.006;2023-09-07T05:00:17;14.36;84.99
68128;SHT30;54931;52.098;21.006;2023-09-07T05:02:46;14.86;84.45
68128;SHT30;54931;52.098;21.006;2023-09-07T05:05:14;15.40;84.14
68128;SHT30;54931;52.098;21.006;2023-09-07T05:07:42;15.92;83.36
68128;SHT30;54931;52.098;21.006;2023-09-07T05:10:09;16.39;82.59
68128;SHT30;54931;52.098;21.006;2023-09-07T05:12:39;16.85;81.60
68128;SHT30;54931;52.098;21.006;2023-09-07T05:15:07;17.27;80.42
68128;SHT30;54931;52.098;21.006;2023-09-07T05:17:36;17.66;79.57
68128;SHT30;54931;52.098;21.006;2023-09-07T05:20:05;18.05;78.65
68128;SHT30;54931;52.098;21.006;2023-09-07T05:22:36;18.39;77.45
68128;SHT30;54931;52.098;21.006;2023-09-07T05:25:06;18.65;76.18
68128;SHT30;54931;52.098;21.006;2023-09-07T05:27:35;18.92;75.48
68128;SHT30;54931;52.098;21.006;2023-09-07T05:30:04;19.24;74.84
68128;SHT30;54931;52.098;21.006;2023-09-07T05:32:34;19.55;73.70
68128;SHT30;54931;52.098;21.006;2023-09-07T05:35:01;19.76;72.77
68128;SHT30;54931;52.098;21.006;2023-09-07T05:37:30;19.99;72.09
68128;SHT30;54931;52.098;21.006;2023-09-07T05:39:58;20.19;71.18
68128;SHT30;54931;52.098;21.006;2023-09-07T05:42:26;20.34;70.37
68128;SHT30;54931;52.098;21.006;2023-09-07T05:44:54;20.58;70.11
68128;SHT30;54931;52.098;21.006;2023-09-07T05:47:22;20.81;69.19
68128;SHT30;54931;52.098;21.006;2023-09-07T05:49:49;21.01;68.54
68128;SHT30;54931;52.098;21.006;2023-09-07T05:52:17;21.34;68.04
68128;SHT30;54931;52.098;21.006;2023-09-07T05:54:45;21.60;67.84
68128;SHT30;54931;52.098;21.006;2023-09-07T05:57:13;21.80;66.96
68128;SHT30;54931;52.098;21.006;2023-09-07T05:59:41;21.79;66.31
68128;SHT30;54931;52.098;21.006;2023-09-07T06:02:09;21.99;66.72
68128;SHT30;54931;52.098;21.006;2023-09-07T06:04:37;22.36;65.95
68128;SHT30;54931;52.098;21.006;2023-09-07T06:07:05;22.65;64.92
68128;SHT30;54931;52.098;21.006;2023-09-07T06:09:32;22.81;64.18
68128;SHT30;54931;52.098;21.006;2023-09-07T06:11:59;23.02;63.58
68128;SHT30;54931;52.098;21.006;2023-09-07T06:14:27;23.23;63.34
68128;SHT30;54931;52.098;21.006;2023-09-07T06:16:55;23.51;62.72
68128;SHT30;54931;52.098;21.006;2023-09-07T06:19:23;23.75;61.67
68128;SHT30;54931;52.098;21.006;2023-09-07T06:21:51;23.89;60.72
68128;SHT30;54931;52.098;21.006;2023-09-07T06:24:19;23.88;60.21
68128;SHT30;54931;52.098;21.006;2023-09-07T06:26:47;23.82;60.15
68128;SHT30;54931;52.098;21.006;2023-09-07T06:29:15;23.78;59.25
68128;SHT30;54931;52.098;21.006;2023-09-07T06:31:43;23.60;59.49
68128;SHT30;54931;52.098;21.006;2023-09-07T06:34:11;23.72;59.73
68128;SHT30;54931;52.098;21.006;2023-09-07T06:36:38;23.99;59.54
68128;SHT30;54931;52.098;21.006;2023-09-07T06:39:06;24.25;59.41
68128;SHT30;54931;52.098;21.006;2023-09-07T06:41:34;24.62;59.08
68128;SHT30;54931;52.098;21.006;2023-09-07T06:44:02;24.82;58.25
68128;SHT30;54931;52.098;21.006;2023-09-07T06:46:30;24.86;57.81
68128;SHT30;54931;52.098;21.006;2023-09-07T06:48:57;25.01;57.58
68128;SHT30;54931;52.098;21.006;2023-09-07T06:51:25;25.20;57.54
68128;SHT30;54931;52.098;21.006;2023-09-07T06:53:53;25.46;56.68
68128;SHT30;54931;52.098;21.006;2023-09-07T06:56:20;25.52;55.95
68128;SHT30;54931;52.098;21.006;2023-09-07T06:58:48;25.45;55.59
68128;SHT30;54931;52.098;21.006;2023-09-07T07:01:16;25.44;56.34
68128;SHT30;54931;52.098;21.006;2023-09-07T07:03:44;25.66;56.08
68128;SHT30;54931;52.098;21.006;2023-09-07T07:06:11;25.99;55.66
68128;SHT30;54931;52.098;21.006;2023-09-07T07:08:38;26.21;54.68
68128;SHT30;54931;52.098;21.006;2023-09-07T07:11:06;26.31;53.82
68128;SHT30;54931;52.098;21.006;2023-09-07T07:13:34;26.05;53.84
68128;SHT30;54931;52.098;21.006;2023-09-07T07:16:04;26.15;53.83
68128;SHT30;54931;52.098;21.006;2023-09-07T07:18:32;26.27;53.55
68128;SHT30;54931;52.098;21.006;2023-09-07T07:20:59;26.36;52.96
68128;SHT30;54931;52.098;21.006;2023-09-07T07:23:27;26.35;53.13
68128;SHT30;54931;52.098;21.006;2023-09-07T07:25:54;26.44;53.44
68128;SHT30;54931;52.098;21.006;2023-09-07T07:28:22;26.58;53.17
68128;SHT30;54931;52.098;21.006;2023-09-07T07:30:50;26.68;53.48
68128;SHT30;54931;52.098;21.006;2023-09-07T07:33:19;26.97;52.79
68128;SHT30;54931;52.098;21.006;2023-09-07T07:35:47;27.03;52.86
68128;SHT30;54931;52.098;21.006;2023-09-07T07:38:15;27.31;52.52
68128;SHT30;54931;52.098;21.006;2023-09-07T07:40:42;27.46;51.47
68128;SHT30;54931;52.098;21.006;2023-09-07T07:43:10;27.30;51.79
68128;SHT30;54931;52.098;21.006;2023-09-07T07:45:39;27.32;51.36
68128;SHT30;54931;52.098;21.006;2023-09-07T07:48:07;27.41;51.15
68128;SHT30;54931;52.098;21.006;2023-09-07T07:50:36;27.49;51.28
68128;SHT30;54931;52.098;21.006;2023-09-07T07:53:05;27.54;50.87
68128;SHT30;54931;52.098;21.006;2023-09-07T07:55:35;27.64;51.13
68128;SHT30;54931;52.098;21.006;2023-09-07T07:58:07;27.91;50.70
68128;SHT30;54931;52.098;21.006;2023-09-07T08:00:39;27.99;50.04
68128;SHT30;54931;52.098;21.006;2023-09-07T08:03:15;27.93;49.43
68128;SHT30;54931;52.098;21.006;2023-09-07T08:05:42;27.85;49.71
68128;SHT30;54931;52.098;21.006;2023-09-07T08:08:10;27.95;50.38
68128;SHT30;54931;52.098;21.006;2023-09-07T08:10:37;28.19;49.71
68128;SHT30;54931;52.098;21.006;2023-09-07T08:13:07;28.32;48.91
68128;SHT30;54931;52.098;21.006;2023-09-07T08:15:35;28.38;48.78
68128;SHT30;54931;52.098;21.006;2023-09-07T08:18:03;28.57;49.17
68128;SHT30;54931;52.098;21.006;2023-09-07T08:20:31;28.75;49.07
68128;SHT30;54931;52.098;21.006;2023-09-07T08:23:00;28.96;49.14
68128;SHT30;54931;52.098;21.006;2023-09-07T08:25:30;29.31;48.50
68128;SHT30;54931;52.098;21.006;2023-09-07T08:27:58;29.37;46.72
68128;SHT30;54931;52.098;21.006;2023-09-07T08:30:26;29.36;47.83
68128;SHT30;54931;52.098;21.006;2023-09-07T08:32:58;29.70;47.16
68128;SHT30;54931;52.098;21.006;2023-09-07T08:35:25;29.98;46.28
68128;SHT30;54931;52.098;21.006;2023-09-07T08:37:54;29.96;45.97
68128;SHT30;54931;52.098;21.006;2023-09-07T08:40:25;29.81;46.46
68128;SHT30;54931;52.098;21.006;2023-09-07T08:42:54;29.89;45.43
68128;SHT30;54931;52.098;21.006;2023-09-07T08:45:23;29.96;46.44
68128;SHT30;54931;52.098;21.006;2023-09-07T08:47:56;30.14;46.11
68128;SHT30;54931;52.098;21.006;2023-09-07T08:50:26;30.14;45.99
68128;SHT30;54931;52.098;21.006;2023-09-07T08:52:55;30.37;45.57
68128;SHT30;54931;52.098;21.006;2023-09-07T08:55:28;30.63;45.61
68128;SHT30;54931;52.098;21.006;2023-09-07T08:57:56;30.84;45.38
68128;SHT30;54931;52.098;21.006;2023-09-07T09:00:25;30.76;44.03
68128;SHT30;54931;52.098;21.006;2023-09-07T09:02:53;30.45;45.16
68128;SHT30;54931;52.098;21.006;2023-09-07T09:05:21;30.32;45.22
68128;SHT30;54931;52.098;21.006;2023-09-07T09:08:00;30.33;45.83
68128;SHT30;54931;52.098;21.006;2023-09-07T09:10:33;30.64;45.62
68128;SHT30;54931;52.098;21.006;2023-09-07T09:13:01;30.89;45.32
68128;SHT30;54931;52.098;21.006;2023-09-07T09:15:30;30.99;44.76
68128;SHT30;54931;52.098;21.006;2023-09-07T09:18:08;31.11;44.27
68128;SHT30;54931;52.098;21.006;2023-09-07T09:20:39;31.15;43.18
68128;SHT30;54931;52.098;21.006;2023-09-07T09:23:06;30.88;43.01
68128;SHT30;54931;52.098;21.006;2023-09-07T09:25:35;30.82;44.02
68128;SHT30;54931;52.098;21.006;2023-09-07T09:28:04;30.80;43.64
68128;SHT30;54931;52.098;21.006;2023-09-07T09:30:32;30.89;43.72
68128;SHT30;54931;52.098;21.006;2023-09-07T09:33:00;30.85;43.39
68128;SHT30;54931;52.098;21.006;2023-09-07T09:35:29;30.93;43.10
68128;SHT30;54931;52.098;21.006;2023-09-07T09:38:00;30.98;42.33
68128;SHT30;54931;52.098;21.006;2023-09-07T09:40:32;30.98;42.66
68128;SHT30;54931;52.098;21.006;2023-09-07T09:43:05;31.01;42.84
68128;SHT30;54931;52.098;21.006;2023-09-07T09:45:33;31.05;43.14
68128;SHT30;54931;52.098;21.006;2023-09-07T09:48:02;31.11;42.32
68128;SHT30;54931;52.098;21.006;2023-09-07T09:50:33;31.06;42.73
68128;SHT30;54931;52.098;21.006;2023-09-07T09:53:05;31.11;42.16
68128;SHT30;54931;52.098;21.006;2023-09-07T09:55:34;31.03;41.92
68128;SHT30;54931;52.098;21.006;2023-09-07T09:58:02;30.92;41.94
68128;SHT30;54931;52.098;21.006;2023-09-07T10:00:30;30.79;43.10
68128;SHT30;54931;52.098;21.006;2023-09-07T10:03:08;30.92;42.35
68128;SHT30;54931;52.098;21.006;2023-09-07T10:05:38;30.83;41.99
68128;SHT30;54931;52.098;21.006;2023-09-07T10:08:09;30.48;43.45
68128;SHT30;54931;52.098;21.006;2023-09-07T10:10:43;30.06;44.06
68128;SHT30;54931;52.098;21.006;2023-09-07T10:13:14;29.74;44.94
68128;SHT30;54931;52.098;21.006;2023-09-07T10:15:43;29.28;44.62
68128;SHT30;54931;52.098;21.006;2023-09-07T10:18:14;28.86;45.45
68128;SHT30;54931;52.098;21.006;2023-09-07T10:20:51;28.63;45.98
68128;SHT30;54931;52.098;21.006;2023-09-07T10:23:36;28.66;46.61
68128;SHT30;54931;52.098;21.006;2023-09-07T10:26:12;28.90;46.22
68128;SHT30;54931;52.098;21.006;2023-09-07T10:28:45;29.18;45.44
68128;SHT30;54931;52.098;21.006;2023-09-07T10:31:13;29.42;45.44
68128;SHT30;54931;52.098;21.006;2023-09-07T10:33:42;29.41;44.99
68128;SHT30;54931;52.098;21.006;2023-09-07T10:36:20;29.29;44.39
68128;SHT30;54931;52.098;21.006;2023-09-07T10:38:54;29.39;44.82
68128;SHT30;54931;52.098;21.006;2023-09-07T10:41:25;29.51;44.29
68128;SHT30;54931;52.098;21.006;2023-09-07T10:43:53;29.45;43.27
68128;SHT30;54931;52.098;21.006;2023-09-07T10:46:23;29.22;43.51
68128;SHT30;54931;52.098;21.006;2023-09-07T10:48:52;28.97;43.90
68128;SHT30;54931;52.098;21.006;2023-09-07T10:51:20;28.63;43.97
68128;SHT30;54931;52.098;21.006;2023-09-07T10:53:48;28.28;44.79
68128;SHT30;54931;52.098;21.006;2023-09-07T10:56:16;28.11;45.51
68128;SHT30;54931;52.098;21.006;2023-09-07T10:58:44;28.04;45.88
68128;SHT30;54931;52.098;21.006;2023-09-07T11:01:11;27.89;46.33
68128;SHT30;54931;52.098;21.006;2023-09-07T11:03:38;27.70;47.06
68128;SHT30;54931;52.098;21.006;2023-09-07T11:06:07;27.72;47.03
68128;SHT30;54931;52.098;21.006;2023-09-07T11:08:38;27.84;46.48
68128;SHT30;54931;52.098;21.006;2023-09-07T11:11:06;27.95;46.55
68128;SHT30;54931;52.098;21.006;2023-09-07T11:13:35;28.09;46.49
68128;SHT30;54931;52.098;21.006;2023-09-07T11:16:06;28.25;45.90
68128;SHT30;54931;52.098;21.006;2023-09-07T11:18:36;28.28;45.52
68128;SHT30;54931;52.098;21.006;2023-09-07T11:21:04;28.31;45.16
68128;SHT30;54931;52.098;21.006;2023-09-07T11:23:31;28.32;44.77
68128;SHT30;54931;52.098;21.006;2023-09-07T11:26:05;28.33;45.49
68128;SHT30;54931;52.098;21.006;2023-09-07T11:28:34;28.35;44.32
68128;SHT30;54931;52.098;21.006;2023-09-07T11:31:01;28.30;43.63
68128;SHT30;54931;52.098;21.006;2023-09-07T11:33:32;28.25;44.63
68128;SHT30;54931;52.098;21.006;2023-09-07T11:36:02;28.31;44.05
68128;SHT30;54931;52.098;21.006;2023-09-07T11:38:35;28.27;44.66
68128;SHT30;54931;52.098;21.006;2023-09-07T11:41:04;28.34;45.12
68128;SHT30;54931;52.098;21.006;2023-09-07T11:43:32;28.39;44.85
68128;SHT30;54931;52.098;21.006;2023-09-07T11:46:00;28.48;44.66
68128;SHT30;54931;52.098;21.006;2023-09-07T11:48:28;28.44;44.36
68128;SHT30;54931;52.098;21.006;2023-09-07T11:50:56;28.44;44.66
68128;SHT30;54931;52.098;21.006;2023-09-07T11:53:23;28.47;45.16
68128;SHT30;54931;52.098;21.006;2023-09-07T11:55:51;28.49;44.50
68128;SHT30;54931;52.098;21.006;2023-09-07T11:58:19;28.51;44.07
68128;SHT30;54931;52.098;21.006;2023-09-07T12:00:46;28.53;43.63
68128;SHT30;54931;52.098;21.006;2023-09-07T12:03:14;28.61;43.86
68128;SHT30;54931;52.098;21.006;2023-09-07T12:05:41;28.64;43.61
68128;SHT30;54931;52.098;21.006;2023-09-07T12:08:11;28.67;43.27
68128;SHT30;54931;52.098;21.006;2023-09-07T12:10:39;28.64;42.70
68128;SHT30;54931;52.098;21.006;2023-09-07T12:13:07;28.57;41.26
68128;SHT30;54931;52.098;21.006;2023-09-07T12:15:35;28.52;41.69
68128;SHT30;54931;52.098;21.006;2023-09-07T12:18:03;28.51;42.27
68128;SHT30;54931;52.098;21.006;2023-09-07T12:20:31;28.44;42.73
68128;SHT30;54931;52.098;21.006;2023-09-07T12:22:59;28.26;43.86
68128;SHT30;54931;52.098;21.006;2023-09-07T12:25:26;28.16;44.66
68128;SHT30;54931;52.098;21.006;2023-09-07T12:27:54;28.17;45.37
68128;SHT30;54931;52.098;21.006;2023-09-07T12:30:21;28.17;45.49
68128;SHT30;54931;52.098;21.006;2023-09-07T12:32:51;28.00;45.96
68128;SHT30;54931;52.098;21.006;2023-09-07T12:35:19;27.85;45.90
68128;SHT30;54931;52.098;21.006;2023-09-07T12:37:49;27.80;45.77
68128;SHT30;54931;52.098;21.006;2023-09-07T12:40:17;27.82;45.72
68128;SHT30;54931;52.098;21.006;2023-09-07T12:42:45;27.87;45.20
68128;SHT30;54931;52.098;21.006;2023-09-07T12:45:13;27.92;44.80
68128;SHT30;54931;52.098;21.006;2023-09-07T12:47:43;27.92;43.93
68128;SHT30;54931;52.098;21.006;2023-09-07T12:50:11;27.90;43.45
68128;SHT30;54931;52.098;21.006;2023-09-07T12:52:40;27.92;44.70
68128;SHT30;54931;52.098;21.006;2023-09-07T12:55:08;28.02;44.05
68128;SHT30;54931;52.098;21.006;2023-09-07T12:57:36;28.09;43.45
68128;SHT30;54931;52.098;21.006;2023-09-07T13:00:04;28.11;42.66
68128;SHT30;54931;52.098;21.006;2023-09-07T13:02:34;28.02;42.98
68128;SHT30;54931;52.098;21.006;2023-09-07T13:05:02;27.94;43.90
68128;SHT30;54931;52.098;21.006;2023-09-07T13:07:33;27.85;44.27
68128;SHT30;54931;52.098;21.006;2023-09-07T13:10:02;27.75;43.16
68128;SHT30;54931;52.098;21.006;2023-09-07T13:12:32;27.85;43.15
68128;SHT30;54931;52.098;21.006;2023-09-07T13:15:00;27.98;42.72
68128;SHT30;54931;52.098;21.006;2023-09-07T13:17:27;28.06;42.29
68128;SHT30;54931;52.098;21.006;2023-09-07T13:19:55;28.12;42.11
68128;SHT30;54931;52.098;21.006;2023-09-07T13:22:23;28.17;42.24
68128;SHT30;54931;52.098;21.006;2023-09-07T13:24:50;28.18;41.65
68128;SHT30;54931;52.098;21.006;2023-09-07T13:27:18;28.17;41.16
68128;SHT30;54931;52.098;21.006;2023-09-07T13:29:46;28.21;41.43
68128;SHT30;54931;52.098;21.006;2023-09-07T13:32:13;28.24;41.34
68128;SHT30;54931;52.098;21.006;2023-09-07T13:34:40;28.28;41.12
68128;SHT30;54931;52.098;21.006;2023-09-07T13:37:09;28.33;41.39
68128;SHT30;54931;52.098;21.006;2023-09-07T13:39:36;28.49;42.37
68128;SHT30;54931;52.098;21.006;2023-09-07T13:42:04;28.61;42.38
68128;SHT30;54931;52.098;21.006;2023-09-07T13:44:32;28.66;42.26
68128;SHT30;54931;52.098;21.006;2023-09-07T13:46:59;28.72;42.02
68128;SHT30;54931;52.098;21.006;2023-09-07T13:49:27;28.88;41.80
68128;SHT30;54931;52.098;21.006;2023-09-07T13:51:55;29.06;41.20
68128;SHT30;54931;52.098;21.006;2023-09-07T13:54:23;29.08;40.99
68128;SHT30;54931;52.098;21.006;2023-09-07T13:56:50;29.02;40.71
68128;SHT30;54931;52.098;21.006;2023-09-07T13:59:18;28.92;41.23
68128;SHT30;54931;52.098;21.006;2023-09-07T14:01:45;28.82;41.38
68128;SHT30;54931;52.098;21.006;2023-09-07T14:04:13;28.78;41.35
68128;SHT30;54931;52.098;21.006;2023-09-07T14:06:40;28.72;41.67
68128;SHT30;54931;52.098;21.006;2023-09-07T14:09:08;28.68;42.52
68128;SHT30;54931;52.098;21.006;2023-09-07T14:11:36;28.65;42.17
68128;SHT30;54931;52.098;21.006;2023-09-07T14:14:04;28.58;40.78
68128;SHT30;54931;52.098;21.006;2023-09-07T14:16:33;28.50;41.44
68128;SHT30;54931;52.098;21.006;2023-09-07T14:19:00;28.43;41.17
68128;SHT30;54931;52.098;21.006;2023-09-07T14:21:28;28.33;40.86
68128;SHT30;54931;52.098;21.006;2023-09-07T14:23:55;28.24;41.83
68128;SHT30;54931;52.098;21.006;2023-09-07T14:26:23;28.21;41.89
68128;SHT30;54931;52.098;21.006;2023-09-07T14:28:51;28.17;41.60
68128;SHT30;54931;52.098;21.006;2023-09-07T14:31:19;28.11;41.51
68128;SHT30;54931;52.098;21.006;2023-09-07T14:33:47;28.08;41.47
68128;SHT30;54931;52.098;21.006;2023-09-07T14:36:15;28.04;41.69
68128;SHT30;54931;52.098;21.006;2023-09-07T14:38:44;27.97;41.63
68128;SHT30;54931;52.098;21.006;2023-09-07T14:41:11;27.91;41.55
68128;SHT30;54931;52.098;21.006;2023-09-07T14:43:46;27.82;41.60
68128;SHT30;54931;52.098;21.006;2023-09-07T14:46:14;27.76;41.98
68128;SHT30;54931;52.098;21.006;2023-09-07T14:48:43;27.71;41.64
68128;SHT30;54931;52.098;21.006;2023-09-07T14:51:11;27.61;41.03
68128;SHT30;54931;52.098;21.006;2023-09-07T14:53:39;27.55;41.43
68128;SHT30;54931;52.098;21.006;2023-09-07T14:56:07;27.52;41.98
68128;SHT30;54931;52.098;21.006;2023-09-07T14:58:34;27.46;42.92
68128;SHT30;54931;52.098;21.006;2023-09-07T15:01:03;27.44;42.60
68128;SHT30;54931;52.098;21.006;2023-09-07T15:03:31;27.43;42.42
68128;SHT30;54931;52.098;21.006;2023-09-07T15:05:58;27.44;42.56
68128;SHT30;54931;52.098;21.006;2023-09-07T15:08:26;27.43;42.79
68128;SHT30;54931;52.098;21.006;2023-09-07T15:10:53;27.43;42.41
68128;SHT30;54931;52.098;21.006;2023-09-07T15:13:20;27.41;43.55
68128;SHT30;54931;52.098;21.006;2023-09-07T15:15:49;27.36;43.65
68128;SHT30;54931;52.098;21.006;2023-09-07T15:18:16;27.32;43.07
68128;SHT30;54931;52.098;21.006;2023-09-07T15:20:44;27.28;42.70
68128;SHT30;54931;52.098;21.006;2023-09-07T15:23:13;27.26;43.25